sensor_id;sensor_type;location;lat;lon;timestamp;P1;durP1;ratioP1;P2;durP2;ratioP2
5452;SDS011;2749;53.576;9.822;2022-12-07T00:01:07;40.47;;;20.90;;
5452;SDS011;2749;53.576;9.822;2022-12-07T00:03:34;32.93;;;21.40;;
5452;SDS011;2749;53.576;9.822;2022-12-07T00:06:00;30.57;;;19.37;;
5452;SDS011;2749;53.576;9.822;2022-12-07T00:08:26;26.53;;;18.50;;
5452;SDS011;2749;53.576;9.822;2022-12-07T00:10:53;32.30;;;22.30;;
5452;SDS011;2749;53.576;9.822;2022-12-07T00:13:18;31.57;;;18.87;;
5452;SDS011;2749;53.576;9.822;2022-12-07T00:15:44;30.70;;;22.13;;
5452;SDS011;2749;53.576;9.822;2022-12-07T00:18:10;33.43;;;18.73;;
5452;SDS011;2749;53.576;9.822;2022-12-07T00:20:36;30.23;;;19.47;;
5452;SDS011;2749;53.576;9.822;2022-12-07T00:23:02;35.83;;;23.40;;
5452;SDS011;2749;53.576;9.822;2022-12-07T00:25:29;40.07;;;22.97;;
5452;SDS011;2749;53.576;9.822;2022-12-07T00:27:55;30.73;;;20.20;;
5452;SDS011;2749;53.576;9.822;2022-12-07T00:30:22;28.50;;;18.63;;
5452;SDS011;2749;53.576;9.822;2022-12-07T00:32:48;35.77;;;22.37;;
5452;SDS011;2749;53.576;9.822;2022-12-07T00:35:14;35.53;;;21.40;;
5452;SDS011;2749;53.576;9.822;2022-12-07T00:37:40;25.30;;;19.10;;
5452;SDS011;2749;53.576;9.822;2022-12-07T00:40:06;33.17;;;20.10;;
5452;SDS011;2749;53.576;9.822;2022-12-07T00:42:32;27.13;;;20.03;;
5452;SDS011;2749;53.576;9.822;2022-12-07T00:44:58;30.97;;;20.87;;
5452;SDS011;2749;53.576;9.822;2022-12-07T00:47:24;29.90;;;19.70;;
5452;SDS011;2749;53.576;9.822;2022-12-07T00:49:50;29.20;;;20.13;;
5452;SDS011;2749;53.576;9.822;2022-12-07T00:52:16;35.23;;;20.47;;
5452;SDS011;2749;53.576;9.822;2022-12-07T00:54:42;25.33;;;16.10;;
5452;SDS011;2749;53.576;9.822;2022-12-07T00:57:08;31.50;;;19.63;;
5452;SDS011;2749;53.576;9.822;2022-12-07T00:59:34;26.80;;;16.97;;
5452;SDS011;2749;53.576;9.822;2022-12-07T01:01:59;28.67;;;17.70;;
5452;SDS011;2749;53.576;9.822;2022-12-07T01:04:25;26.17;;;17.90;;
5452;SDS011;2749;53.576;9.822;2022-12-07T01:06:51;25.73;;;16.40;;
5452;SDS011;2749;53.576;9.822;2022-12-07T01:09:17;26.60;;;18.90;;
5452;SDS011;2749;53.576;9.822;2022-12-07T01:11:43;24.97;;;16.87;;
5452;SDS011;2749;53.576;9.822;2022-12-07T01:14:09;24.37;;;16.60;;
5452;SDS011;2749;53.576;9.822;2022-12-07T01:16:35;28.80;;;18.37;;
5452;SDS011;2749;53.576;9.822;2022-12-07T01:19:01;26.40;;;15.90;;
5452;SDS011;2749;53.576;9.822;2022-12-07T01:21:30;26.73;;;14.33;;
5452;SDS011;2749;53.576;9.822;2022-12-07T01:24:00;19.93;;;15.47;;
5452;SDS011;2749;53.576;9.822;2022-12-07T01:26:27;19.47;;;14.27;;
5452;SDS011;2749;53.576;9.822;2022-12-07T01:28:52;24.07;;;15.90;;
5452;SDS011;2749;53.576;9.822;2022-12-07T01:31:20;25.73;;;17.40;;
5452;SDS011;2749;53.576;9.822;2022-12-07T01:33:47;26.00;;;16.50;;
5452;SDS011;2749;53.576;9.822;2022-12-07T01:36:15;28.90;;;17.50;;
5452;SDS011;2749;53.576;9.822;2022-12-07T01:38:42;23.97;;;15.50;;
5452;SDS011;2749;53.576;9.822;2022-12-07T01:41:08;29.17;;;15.80;;
5452;SDS011;2749;53.576;9.822;2022-12-07T01:43:34;23.37;;;14.03;;
5452;SDS011;2749;53.576;9.822;2022-12-07T01:46:00;24.47;;;15.90;;
5452;SDS011;2749;53.576;9.822;2022-12-07T01:48:27;26.10;;;12.23;;
5452;SDS011;2749;53.576;9.822;2022-12-07T01:50:54;24.63;;;12.80;;
5452;SDS011;2749;53.576;9.822;2022-12-07T01:53:22;21.93;;;12.60;;
5452;SDS011;2749;53.576;9.822;2022-12-07T01:55:50;15.27;;;11.87;;
5452;SDS011;2749;53.576;9.822;2022-12-07T01:58:17;32.23;;;13.60;;
5452;SDS011;2749;53.576;9.822;2022-12-07T02:00:43;20.23;;;13.87;;
5452;SDS011;2749;53.576;9.822;2022-12-07T02:03:31;16.60;;;10.70;;
5452;SDS011;2749;53.576;9.822;2022-12-07T02:05:55;18.90;;;10.20;;
5452;SDS011;2749;53.576;9.822;2022-12-07T02:08:21;18.50;;;10.90;;
5452;SDS011;2749;53.576;9.822;2022-12-07T02:10:47;15.97;;;10.67;;
5452;SDS011;2749;53.576;9.822;2022-12-07T02:13:18;18.20;;;9.33;;
5452;SDS011;2749;53.576;9.822;2022-12-07T02:18:21;14.43;;;9.33;;
5452;SDS011;2749;53.576;9.822;2022-12-07T02:23:39;11.10;;;8.17;;
5452;SDS011;2749;53.576;9.822;2022-12-07T02:29:06;18.37;;;8.13;;
5452;SDS011;2749;53.576;9.822;2022-12-07T02:31:36;9.57;;;7.27;;
5452;SDS011;2749;53.576;9.822;2022-12-07T02:34:14;12.23;;;7.80;;
5452;SDS011;2749;53.576;9.822;2022-12-07T02:36:44;10.20;;;6.47;;
5452;SDS011;2749;53.576;9.822;2022-12-07T02:39:17;14.17;;;7.83;;
5452;SDS011;2749;53.576;9.822;2022-12-07T02:41:47;15.83;;;6.57;;
5452;SDS011;2749;53.576;9.822;2022-12-07T02:44:14;11.63;;;6.83;;
5452;SDS011;2749;53.576;9.822;2022-12-07T02:46:43;8.53;;;5.87;;
5452;SDS011;2749;53.576;9.822;2022-12-07T02:49:10;11.90;;;6.13;;
5452;SDS011;2749;53.576;9.822;2022-12-07T02:51:40;8.13;;;5.60;;
5452;SDS011;2749;53.576;9.822;2022-12-07T02:54:11;9.10;;;6.03;;
5452;SDS011;2749;53.576;9.822;2022-12-07T02:59:16;9.37;;;5.20;;
5452;SDS011;2749;53.576;9.822;2022-12-07T03:01:50;9.20;;;5.60;;
5452;SDS011;2749;53.576;9.822;2022-12-07T03:06:58;5.93;;;4.40;;
5452;SDS011;2749;53.576;9.822;2022-12-07T03:09:27;5.87;;;3.70;;
5452;SDS011;2749;53.576;9.822;2022-12-07T03:11:57;6.03;;;3.37;;
5452;SDS011;2749;53.576;9.822;2022-12-07T03:14:29;13.43;;;4.50;;
5452;SDS011;2749;53.576;9.822;2022-12-07T03:17:04;5.97;;;3.07;;
5452;SDS011;2749;53.576;9.822;2022-12-07T03:19:31;10.90;;;4.67;;
5452;SDS011;2749;53.576;9.822;2022-12-07T03:22:08;12.37;;;2.90;;
5452;SDS011;2749;53.576;9.822;2022-12-07T03:24:37;4.93;;;3.37;;
5452;SDS011;2749;53.576;9.822;2022-12-07T03:27:06;7.13;;;3.70;;
5452;SDS011;2749;53.576;9.822;2022-12-07T03:29:53;5.10;;;2.30;;
5452;SDS011;2749;53.576;9.822;2022-12-07T03:32:23;6.90;;;2.53;;
5452;SDS011;2749;53.576;9.822;2022-12-07T03:37:39;2.33;;;2.00;;
5452;SDS011;2749;53.576;9.822;2022-12-07T03:42:31;3.40;;;2.80;;
5452;SDS011;2749;53.576;9.822;2022-12-07T03:44:58;6.73;;;2.13;;
5452;SDS011;2749;53.576;9.822;2022-12-07T03:47:27;3.33;;;2.13;;
5452;SDS011;2749;53.576;9.822;2022-12-07T03:49:57;4.00;;;2.67;;
5452;SDS011;2749;53.576;9.822;2022-12-07T03:54:58;3.37;;;1.73;;
5452;SDS011;2749;53.576;9.822;2022-12-07T03:57:26;5.90;;;2.50;;
5452;SDS011;2749;53.576;9.822;2022-12-07T03:59:53;5.10;;;3.03;;
5452;SDS011;2749;53.576;9.822;2022-12-07T04:02:20;6.03;;;2.17;;
5452;SDS011;2749;53.576;9.822;2022-12-07T04:04:46;5.67;;;2.47;;
5452;SDS011;2749;53.576;9.822;2022-12-07T04:07:12;3.20;;;2.73;;
5452;SDS011;2749;53.576;9.822;2022-12-07T04:09:38;2.10;;;1.77;;
5452;SDS011;2749;53.576;9.822;2022-12-07T04:12:04;2.77;;;1.93;;
5452;SDS011;2749;53.576;9.822;2022-12-07T04:14:30;1.63;;;1.40;;
5452;SDS011;2749;53.576;9.822;2022-12-07T04:16:57;4.17;;;2.30;;
5452;SDS011;2749;53.576;9.822;2022-12-07T04:19:27;3.53;;;2.50;;
5452;SDS011;2749;53.576;9.822;2022-12-07T04:21:54;6.43;;;2.53;;
5452;SDS011;2749;53.576;9.822;2022-12-07T04:24:20;6.93;;;2.70;;
5452;SDS011;2749;53.576;9.822;2022-12-07T04:26:46;4.93;;;2.30;;
5452;SDS011;2749;53.576;9.822;2022-12-07T04:29:13;6.70;;;2.87;;
5452;SDS011;2749;53.576;9.822;2022-12-07T04:31:39;2.73;;;2.50;;
5452;SDS011;2749;53.576;9.822;2022-12-07T04:34:05;7.90;;;2.83;;
5452;SDS011;2749;53.576;9.822;2022-12-07T04:36:31;4.50;;;2.73;;
5452;SDS011;2749;53.576;9.822;2022-12-07T04:38:57;4.20;;;2.47;;
5452;SDS011;2749;53.576;9.822;2022-12-07T04:41:23;2.80;;;2.17;;
5452;SDS011;2749;53.576;9.822;2022-12-07T04:43:56;4.67;;;2.77;;
5452;SDS011;2749;53.576;9.822;2022-12-07T04:46:22;6.13;;;2.80;;
5452;SDS011;2749;53.576;9.822;2022-12-07T04:48:49;4.50;;;2.80;;
5452;SDS011;2749;53.576;9.822;2022-12-07T04:51:21;5.93;;;2.97;;
5452;SDS011;2749;53.576;9.822;2022-12-07T04:53:48;4.50;;;3.07;;
5452;SDS011;2749;53.576;9.822;2022-12-07T04:56:14;5.20;;;3.13;;
5452;SDS011;2749;53.576;9.822;2022-12-07T04:58:41;6.30;;;3.23;;
5452;SDS011;2749;53.576;9.822;2022-12-07T05:01:07;3.87;;;3.30;;
5452;SDS011;2749;53.576;9.822;2022-12-07T05:03:33;4.07;;;2.97;;
5452;SDS011;2749;53.576;9.822;2022-12-07T05:05:59;7.73;;;3.70;;
5452;SDS011;2749;53.576;9.822;2022-12-07T05:08:25;3.00;;;2.70;;
5452;SDS011;2749;53.576;9.822;2022-12-07T05:10:50;4.90;;;4.17;;
5452;SDS011;2749;53.576;9.822;2022-12-07T05:13:16;5.70;;;3.00;;
5452;SDS011;2749;53.576;9.822;2022-12-07T05:15:42;5.00;;;3.50;;
5452;SDS011;2749;53.576;9.822;2022-12-07T05:18:09;5.17;;;3.60;;
5452;SDS011;2749;53.576;9.822;2022-12-07T05:20:37;14.17;;;3.80;;
5452;SDS011;2749;53.576;9.822;2022-12-07T05:23:03;6.37;;;3.03;;
5452;SDS011;2749;53.576;9.822;2022-12-07T05:25:29;5.30;;;4.07;;
5452;SDS011;2749;53.576;9.822;2022-12-07T05:27:55;5.90;;;3.00;;
5452;SDS011;2749;53.576;9.822;2022-12-07T05:30:21;5.70;;;3.93;;
5452;SDS011;2749;53.576;9.822;2022-12-07T05:32:47;5.77;;;4.33;;
5452;SDS011;2749;53.576;9.822;2022-12-07T05:35:13;10.83;;;3.10;;
5452;SDS011;2749;53.576;9.822;2022-12-07T05:37:39;6.80;;;3.83;;
5452;SDS011;2749;53.576;9.822;2022-12-07T05:40:05;4.97;;;3.53;;
5452;SDS011;2749;53.576;9.822;2022-12-07T05:42:31;8.73;;;4.23;;
5452;SDS011;2749;53.576;9.822;2022-12-07T05:44:57;4.13;;;3.70;;
5452;SDS011;2749;53.576;9.822;2022-12-07T05:47:23;5.80;;;4.20;;
5452;SDS011;2749;53.576;9.822;2022-12-07T05:49:49;4.13;;;3.37;;
5452;SDS011;2749;53.576;9.822;2022-12-07T05:52:15;5.27;;;3.20;;
5452;SDS011;2749;53.576;9.822;2022-12-07T05:54:41;4.17;;;2.70;;
5452;SDS011;2749;53.576;9.822;2022-12-07T05:57:07;6.83;;;3.47;;
5452;SDS011;2749;53.576;9.822;2022-12-07T05:59:33;3.43;;;3.13;;
5452;SDS011;2749;53.576;9.822;2022-12-07T06:02:00;3.67;;;3.33;;
5452;SDS011;2749;53.576;9.822;2022-12-07T06:04:28;4.30;;;3.17;;
5452;SDS011;2749;53.576;9.822;2022-12-07T06:06:55;3.03;;;2.53;;
5452;SDS011;2749;53.576;9.822;2022-12-07T06:09:21;5.40;;;3.03;;
5452;SDS011;2749;53.576;9.822;2022-12-07T06:11:47;4.60;;;3.87;;
5452;SDS011;2749;53.576;9.822;2022-12-07T06:14:32;6.40;;;2.57;;
5452;SDS011;2749;53.576;9.822;2022-12-07T06:16:58;4.57;;;2.67;;
5452;SDS011;2749;53.576;9.822;2022-12-07T06:19:24;5.40;;;2.80;;
5452;SDS011;2749;53.576;9.822;2022-12-07T06:21:50;7.50;;;3.30;;
5452;SDS011;2749;53.576;9.822;2022-12-07T06:24:17;4.23;;;3.03;;
5452;SDS011;2749;53.576;9.822;2022-12-07T06:26:43;2.23;;;2.03;;
5452;SDS011;2749;53.576;9.822;2022-12-07T06:29:09;3.37;;;2.03;;
5452;SDS011;2749;53.576;9.822;2022-12-07T06:31:36;5.63;;;2.83;;
5452;SDS011;2749;53.576;9.822;2022-12-07T06:34:03;7.30;;;2.47;;
5452;SDS011;2749;53.576;9.822;2022-12-07T06:36:29;2.80;;;1.90;;
5452;SDS011;2749;53.576;9.822;2022-12-07T06:38:55;3.30;;;1.90;;
5452;SDS011;2749;53.576;9.822;2022-12-07T06:41:22;3.17;;;1.97;;
5452;SDS011;2749;53.576;9.822;2022-12-07T06:43:48;3.23;;;1.90;;
5452;SDS011;2749;53.576;9.822;2022-12-07T06:46:14;5.73;;;2.47;;
5452;SDS011;2749;53.576;9.822;2022-12-07T06:48:40;3.00;;;2.43;;
5452;SDS011;2749;53.576;9.822;2022-12-07T06:51:06;3.30;;;1.50;;
5452;SDS011;2749;53.576;9.822;2022-12-07T06:53:32;3.13;;;1.80;;
5452;SDS011;2749;53.576;9.822;2022-12-07T06:55:58;2.40;;;1.70;;
5452;SDS011;2749;53.576;9.822;2022-12-07T06:58:24;3.00;;;1.50;;
5452;SDS011;2749;53.576;9.822;2022-12-07T07:00:50;4.63;;;2.03;;
5452;SDS011;2749;53.576;9.822;2022-12-07T07:03:16;2.23;;;1.53;;
5452;SDS011;2749;53.576;9.822;2022-12-07T07:05:42;3.90;;;2.03;;
5452;SDS011;2749;53.576;9.822;2022-12-07T07:08:08;1.73;;;1.33;;
5452;SDS011;2749;53.576;9.822;2022-12-07T07:10:34;3.00;;;1.50;;
5452;SDS011;2749;53.576;9.822;2022-12-07T07:13:01;2.70;;;1.60;;
5452;SDS011;2749;53.576;9.822;2022-12-07T07:15:27;2.70;;;2.17;;
5452;SDS011;2749;53.576;9.822;2022-12-07T07:17:53;2.37;;;1.30;;
5452;SDS011;2749;53.576;9.822;2022-12-07T07:20:19;1.80;;;1.00;;
5452;SDS011;2749;53.576;9.822;2022-12-07T07:22:45;5.93;;;1.80;;
5452;SDS011;2749;53.576;9.822;2022-12-07T07:25:11;6.43;;;1.47;;
5452;SDS011;2749;53.576;9.822;2022-12-07T07:27:37;2.37;;;0.93;;
5452;SDS011;2749;53.576;9.822;2022-12-07T07:30:03;1.00;;;0.90;;
5452;SDS011;2749;53.576;9.822;2022-12-07T07:32:29;2.23;;;1.60;;
5452;SDS011;2749;53.576;9.822;2022-12-07T07:34:55;1.83;;;1.30;;
5452;SDS011;2749;53.576;9.822;2022-12-07T07:37:21;2.27;;;1.67;;
5452;SDS011;2749;53.576;9.822;2022-12-07T07:39:47;10.53;;;1.83;;
5452;SDS011;2749;53.576;9.822;2022-12-07T07:42:14;2.73;;;1.57;;
5452;SDS011;2749;53.576;9.822;2022-12-07T07:44:40;3.17;;;1.53;;
5452;SDS011;2749;53.576;9.822;2022-12-07T07:47:06;3.23;;;1.53;;
5452;SDS011;2749;53.576;9.822;2022-12-07T07:49:31;1.93;;;1.23;;
5452;SDS011;2749;53.576;9.822;2022-12-07T07:51:57;2.30;;;1.30;;
5452;SDS011;2749;53.576;9.822;2022-12-07T07:54:24;4.70;;;1.33;;
5452;SDS011;2749;53.576;9.822;2022-12-07T07:56:49;2.30;;;1.50;;
5452;SDS011;2749;53.576;9.822;2022-12-07T07:59:15;9.70;;;1.73;;
5452;SDS011;2749;53.576;9.822;2022-12-07T08:01:41;3.00;;;1.87;;
5452;SDS011;2749;53.576;9.822;2022-12-07T08:04:07;7.20;;;1.10;;
5452;SDS011;2749;53.576;9.822;2022-12-07T08:06:33;2.27;;;1.10;;
5452;SDS011;2749;53.576;9.822;2022-12-07T08:08:59;6.93;;;1.77;;
5452;SDS011;2749;53.576;9.822;2022-12-07T08:11:25;3.67;;;1.37;;
5452;SDS011;2749;53.576;9.822;2022-12-07T08:13:51;1.87;;;1.27;;
5452;SDS011;2749;53.576;9.822;2022-12-07T08:16:17;1.90;;;1.10;;
5452;SDS011;2749;53.576;9.822;2022-12-07T08:18:43;6.70;;;1.60;;
5452;SDS011;2749;53.576;9.822;2022-12-07T08:21:12;6.33;;;1.70;;
5452;SDS011;2749;53.576;9.822;2022-12-07T08:23:38;6.00;;;1.90;;
5452;SDS011;2749;53.576;9.822;2022-12-07T08:26:05;3.13;;;1.37;;
5452;SDS011;2749;53.576;9.822;2022-12-07T08:28:31;4.10;;;1.70;;
5452;SDS011;2749;53.576;9.822;2022-12-07T08:31:01;7.00;;;2.13;;
5452;SDS011;2749;53.576;9.822;2022-12-07T08:33:27;2.80;;;1.90;;
5452;SDS011;2749;53.576;9.822;2022-12-07T08:35:53;4.10;;;1.43;;
5452;SDS011;2749;53.576;9.822;2022-12-07T08:38:19;3.20;;;1.57;;
5452;SDS011;2749;53.576;9.822;2022-12-07T08:40:45;2.87;;;1.87;;
5452;SDS011;2749;53.576;9.822;2022-12-07T08:43:18;6.80;;;1.97;;
5452;SDS011;2749;53.576;9.822;2022-12-07T08:45:44;3.80;;;1.63;;
5452;SDS011;2749;53.576;9.822;2022-12-07T08:48:10;5.33;;;1.93;;
5452;SDS011;2749;53.576;9.822;2022-12-07T08:50:39;2.40;;;2.20;;
5452;SDS011;2749;53.576;9.822;2022-12-07T08:53:05;3.30;;;1.50;;
5452;SDS011;2749;53.576;9.822;2022-12-07T08:55:31;1.67;;;1.50;;
5452;SDS011;2749;53.576;9.822;2022-12-07T08:57:59;4.97;;;1.90;;
5452;SDS011;2749;53.576;9.822;2022-12-07T09:00:25;2.63;;;1.93;;
5452;SDS011;2749;53.576;9.822;2022-12-07T09:02:52;4.20;;;2.27;;
5452;SDS011;2749;53.576;9.822;2022-12-07T09:05:18;5.63;;;1.73;;
5452;SDS011;2749;53.576;9.822;2022-12-07T09:07:45;4.97;;;1.30;;
5452;SDS011;2749;53.576;9.822;2022-12-07T09:10:11;10.60;;;2.37;;
5452;SDS011;2749;53.576;9.822;2022-12-07T09:12:37;2.77;;;1.20;;
5452;SDS011;2749;53.576;9.822;2022-12-07T09:15:04;2.50;;;1.80;;
5452;SDS011;2749;53.576;9.822;2022-12-07T09:17:31;3.37;;;2.33;;
5452;SDS011;2749;53.576;9.822;2022-12-07T09:19:58;2.07;;;1.13;;
5452;SDS011;2749;53.576;9.822;2022-12-07T09:22:27;4.10;;;1.83;;
5452;SDS011;2749;53.576;9.822;2022-12-07T09:24:53;5.00;;;1.70;;
5452;SDS011;2749;53.576;9.822;2022-12-07T09:27:19;4.50;;;1.97;;
5452;SDS011;2749;53.576;9.822;2022-12-07T09:29:45;2.47;;;1.67;;
5452;SDS011;2749;53.576;9.822;2022-12-07T09:32:11;3.87;;;1.50;;
5452;SDS011;2749;53.576;9.822;2022-12-07T09:34:37;3.97;;;1.57;;
5452;SDS011;2749;53.576;9.822;2022-12-07T09:37:03;4.07;;;1.13;;
5452;SDS011;2749;53.576;9.822;2022-12-07T09:39:29;1.30;;;1.20;;
5452;SDS011;2749;53.576;9.822;2022-12-07T09:41:56;9.73;;;1.87;;
5452;SDS011;2749;53.576;9.822;2022-12-07T09:44:24;3.80;;;1.67;;
5452;SDS011;2749;53.576;9.822;2022-12-07T09:46:50;3.70;;;1.80;;
5452;SDS011;2749;53.576;9.822;2022-12-07T09:49:19;6.23;;;1.80;;
5452;SDS011;2749;53.576;9.822;2022-12-07T09:51:45;3.73;;;1.73;;
5452;SDS011;2749;53.576;9.822;2022-12-07T09:54:12;2.73;;;1.70;;
5452;SDS011;2749;53.576;9.822;2022-12-07T09:56:38;3.70;;;1.40;;
5452;SDS011;2749;53.576;9.822;2022-12-07T09:59:04;4.03;;;1.50;;
5452;SDS011;2749;53.576;9.822;2022-12-07T10:01:31;5.20;;;2.17;;
5452;SDS011;2749;53.576;9.822;2022-12-07T10:04:02;8.00;;;2.03;;
5452;SDS011;2749;53.576;9.822;2022-12-07T10:06:32;8.77;;;1.90;;
5452;SDS011;2749;53.576;9.822;2022-12-07T10:08:58;2.77;;;1.60;;
5452;SDS011;2749;53.576;9.822;2022-12-07T10:11:24;4.87;;;1.70;;
5452;SDS011;2749;53.576;9.822;2022-12-07T10:13:53;4.53;;;1.10;;
5452;SDS011;2749;53.576;9.822;2022-12-07T10:18:52;6.03;;;1.40;;
5452;SDS011;2749;53.576;9.822;2022-12-07T10:21:19;5.40;;;1.43;;
5452;SDS011;2749;53.576;9.822;2022-12-07T10:24:02;2.70;;;0.87;;
5452;SDS011;2749;53.576;9.822;2022-12-07T10:26:32;3.47;;;1.10;;
5452;SDS011;2749;53.576;9.822;2022-12-07T10:29:00;5.03;;;2.77;;
5452;SDS011;2749;53.576;9.822;2022-12-07T10:31:26;3.37;;;1.57;;
5452;SDS011;2749;53.576;9.822;2022-12-07T10:33:58;2.43;;;1.40;;
5452;SDS011;2749;53.576;9.822;2022-12-07T10:41:23;1.10;;;1.00;;
5452;SDS011;2749;53.576;9.822;2022-12-07T10:43:53;3.97;;;1.30;;
5452;SDS011;2749;53.576;9.822;2022-12-07T10:49:36;4.40;;;1.13;;
5452;SDS011;2749;53.576;9.822;2022-12-07T10:51:46;4.33;;;1.30;;
5452;SDS011;2749;53.576;9.822;2022-12-07T10:54:27;3.70;;;1.40;;
5452;SDS011;2749;53.576;9.822;2022-12-07T11:04:59;8.40;;;1.50;;
5452;SDS011;2749;53.576;9.822;2022-12-07T11:09:59;4.70;;;2.07;;
5452;SDS011;2749;53.576;9.822;2022-12-07T11:17:53;3.37;;;1.73;;
5452;SDS011;2749;53.576;9.822;2022-12-07T11:23:14;2.43;;;1.30;;
5452;SDS011;2749;53.576;9.822;2022-12-07T11:25:46;1.13;;;0.80;;
5452;SDS011;2749;53.576;9.822;2022-12-07T11:30:50;5.43;;;1.40;;
5452;SDS011;2749;53.576;9.822;2022-12-07T11:33:19;5.00;;;1.20;;
5452;SDS011;2749;53.576;9.822;2022-12-07T11:38:38;1.50;;;1.40;;
5452;SDS011;2749;53.576;9.822;2022-12-07T11:41:08;1.63;;;1.30;;
5452;SDS011;2749;53.576;9.822;2022-12-07T11:43:37;4.53;;;1.40;;
5452;SDS011;2749;53.576;9.822;2022-12-07T11:46:11;3.57;;;1.20;;
5452;SDS011;2749;53.576;9.822;2022-12-07T11:48:40;4.33;;;1.30;;
5452;SDS011;2749;53.576;9.822;2022-12-07T11:51:12;3.53;;;2.17;;
5452;SDS011;2749;53.576;9.822;2022-12-07T11:53:44;6.77;;;1.87;;
5452;SDS011;2749;53.576;9.822;2022-12-07T11:56:15;4.30;;;1.53;;
5452;SDS011;2749;53.576;9.822;2022-12-07T12:01:22;6.30;;;2.10;;
5452;SDS011;2749;53.576;9.822;2022-12-07T12:03:52;10.80;;;1.40;;
5452;SDS011;2749;53.576;9.822;2022-12-07T12:06:18;5.43;;;1.97;;
5452;SDS011;2749;53.576;9.822;2022-12-07T12:17:02;2.37;;;1.30;;
5452;SDS011;2749;53.576;9.822;2022-12-07T12:19:33;1.37;;;1.13;;
5452;SDS011;2749;53.576;9.822;2022-12-07T12:22:06;4.97;;;1.60;;
5452;SDS011;2749;53.576;9.822;2022-12-07T12:24:36;4.00;;;1.30;;
5452;SDS011;2749;53.576;9.822;2022-12-07T12:27:05;2.40;;;1.67;;
5452;SDS011;2749;53.576;9.822;2022-12-07T12:32:11;3.20;;;1.73;;
5452;SDS011;2749;53.576;9.822;2022-12-07T12:34:40;5.13;;;2.50;;
5452;SDS011;2749;53.576;9.822;2022-12-07T12:37:18;3.20;;;1.50;;
5452;SDS011;2749;53.576;9.822;2022-12-07T12:45:20;4.80;;;4.07;;
5452;SDS011;2749;53.576;9.822;2022-12-07T12:47:57;3.83;;;1.33;;
5452;SDS011;2749;53.576;9.822;2022-12-07T12:50:24;4.70;;;1.47;;
5452;SDS011;2749;53.576;9.822;2022-12-07T12:52:52;6.70;;;1.43;;
5452;SDS011;2749;53.576;9.822;2022-12-07T12:55:20;5.30;;;1.70;;
5452;SDS011;2749;53.576;9.822;2022-12-07T12:57:48;4.93;;;1.60;;
5452;SDS011;2749;53.576;9.822;2022-12-07T13:00:33;3.87;;;1.47;;
5452;SDS011;2749;53.576;9.822;2022-12-07T13:02:59;5.10;;;1.90;;
5452;SDS011;2749;53.576;9.822;2022-12-07T13:05:28;6.70;;;2.13;;
5452;SDS011;2749;53.576;9.822;2022-12-07T13:07:58;2.00;;;1.17;;
5452;SDS011;2749;53.576;9.822;2022-12-07T13:15:44;2.97;;;1.63;;
5452;SDS011;2749;53.576;9.822;2022-12-07T13:23:25;7.23;;;2.00;;
5452;SDS011;2749;53.576;9.822;2022-12-07T13:25:56;6.43;;;2.10;;
5452;SDS011;2749;53.576;9.822;2022-12-07T13:28:25;8.60;;;2.17;;
5452;SDS011;2749;53.576;9.822;2022-12-07T13:31:04;3.27;;;1.57;;
5452;SDS011;2749;53.576;9.822;2022-12-07T13:33:35;5.77;;;1.70;;
5452;SDS011;2749;53.576;9.822;2022-12-07T13:36:01;6.67;;;2.10;;
5452;SDS011;2749;53.576;9.822;2022-12-07T13:41:13;5.87;;;1.87;;
5452;SDS011;2749;53.576;9.822;2022-12-07T13:43:46;2.53;;;1.43;;
5452;SDS011;2749;53.576;9.822;2022-12-07T13:46:13;12.23;;;3.87;;
5452;SDS011;2749;53.576;9.822;2022-12-07T13:48:48;9.87;;;4.90;;
5452;SDS011;2749;53.576;9.822;2022-12-07T13:51:19;5.53;;;2.93;;
5452;SDS011;2749;53.576;9.822;2022-12-07T13:53:53;3.83;;;1.60;;
5452;SDS011;2749;53.576;9.822;2022-12-07T13:56:20;6.80;;;2.67;;
5452;SDS011;2749;53.576;9.822;2022-12-07T13:58:47;6.47;;;3.40;;
5452;SDS011;2749;53.576;9.822;2022-12-07T14:01:13;7.50;;;3.00;;
5452;SDS011;2749;53.576;9.822;2022-12-07T14:03:39;7.40;;;2.73;;
5452;SDS011;2749;53.576;9.822;2022-12-07T14:06:06;8.43;;;4.63;;
5452;SDS011;2749;53.576;9.822;2022-12-07T14:08:37;12.60;;;3.47;;
5452;SDS011;2749;53.576;9.822;2022-12-07T14:11:03;5.07;;;2.80;;
5452;SDS011;2749;53.576;9.822;2022-12-07T14:13:33;5.13;;;3.10;;
5452;SDS011;2749;53.576;9.822;2022-12-07T14:16:03;5.43;;;2.73;;
5452;SDS011;2749;53.576;9.822;2022-12-07T14:23:36;6.37;;;1.93;;
5452;SDS011;2749;53.576;9.822;2022-12-07T14:28:38;7.60;;;1.83;;
5452;SDS011;2749;53.576;9.822;2022-12-07T14:31:11;1.87;;;1.30;;
5452;SDS011;2749;53.576;9.822;2022-12-07T14:33:38;8.27;;;3.07;;
5452;SDS011;2749;53.576;9.822;2022-12-07T14:36:04;3.53;;;2.60;;
5452;SDS011;2749;53.576;9.822;2022-12-07T14:38:30;4.10;;;2.10;;
5452;SDS011;2749;53.576;9.822;2022-12-07T14:40:56;2.90;;;1.30;;
5452;SDS011;2749;53.576;9.822;2022-12-07T14:43:41;7.27;;;1.30;;
5452;SDS011;2749;53.576;9.822;2022-12-07T14:46:07;4.50;;;1.70;;
5452;SDS011;2749;53.576;9.822;2022-12-07T14:48:34;5.80;;;2.60;;
5452;SDS011;2749;53.576;9.822;2022-12-07T14:51:00;5.30;;;2.30;;
5452;SDS011;2749;53.576;9.822;2022-12-07T14:53:35;6.87;;;2.97;;
5452;SDS011;2749;53.576;9.822;2022-12-07T14:56:01;4.77;;;1.93;;
5452;SDS011;2749;53.576;9.822;2022-12-07T14:58:27;2.07;;;1.23;;
5452;SDS011;2749;53.576;9.822;2022-12-07T15:00:53;6.60;;;3.60;;
5452;SDS011;2749;53.576;9.822;2022-12-07T15:03:19;4.67;;;3.50;;
5452;SDS011;2749;53.576;9.822;2022-12-07T15:05:45;3.63;;;3.17;;
5452;SDS011;2749;53.576;9.822;2022-12-07T15:08:12;3.43;;;3.17;;
5452;SDS011;2749;53.576;9.822;2022-12-07T15:10:38;8.87;;;6.30;;
5452;SDS011;2749;53.576;9.822;2022-12-07T15:13:05;6.40;;;5.17;;
5452;SDS011;2749;53.576;9.822;2022-12-07T15:15:50;4.10;;;3.67;;
5452;SDS011;2749;53.576;9.822;2022-12-07T15:18:17;9.80;;;6.03;;
5452;SDS011;2749;53.576;9.822;2022-12-07T15:20:43;18.37;;;11.13;;
5452;SDS011;2749;53.576;9.822;2022-12-07T15:23:09;9.93;;;5.87;;
5452;SDS011;2749;53.576;9.822;2022-12-07T15:25:35;12.10;;;7.00;;
5452;SDS011;2749;53.576;9.822;2022-12-07T15:28:01;24.07;;;14.70;;
5452;SDS011;2749;53.576;9.822;2022-12-07T15:30:27;19.03;;;10.43;;
5452;SDS011;2749;53.576;9.822;2022-12-07T15:32:53;15.40;;;9.53;;
5452;SDS011;2749;53.576;9.822;2022-12-07T15:35:19;16.93;;;9.90;;
5452;SDS011;2749;53.576;9.822;2022-12-07T15:37:45;10.43;;;6.77;;
5452;SDS011;2749;53.576;9.822;2022-12-07T15:40:12;11.93;;;6.77;;
5452;SDS011;2749;53.576;9.822;2022-12-07T15:42:38;8.77;;;6.20;;
5452;SDS011;2749;53.576;9.822;2022-12-07T15:45:04;6.00;;;5.40;;
5452;SDS011;2749;53.576;9.822;2022-12-07T15:47:38;10.57;;;5.50;;
5452;SDS011;2749;53.576;9.822;2022-12-07T15:50:05;7.67;;;4.93;;
5452;SDS011;2749;53.576;9.822;2022-12-07T15:52:32;12.70;;;4.47;;
5452;SDS011;2749;53.576;9.822;2022-12-07T15:54:58;6.60;;;4.13;;
5452;SDS011;2749;53.576;9.822;2022-12-07T15:57:30;8.87;;;4.13;;
5452;SDS011;2749;53.576;9.822;2022-12-07T15:59:56;4.60;;;3.90;;
5452;SDS011;2749;53.576;9.822;2022-12-07T16:02:22;6.83;;;4.27;;
5452;SDS011;2749;53.576;9.822;2022-12-07T16:04:49;3.83;;;3.43;;
5452;SDS011;2749;53.576;9.822;2022-12-07T16:07:15;8.10;;;2.53;;
5452;SDS011;2749;53.576;9.822;2022-12-07T16:09:42;7.97;;;4.60;;
5452;SDS011;2749;53.576;9.822;2022-12-07T16:12:08;6.77;;;4.57;;
5452;SDS011;2749;53.576;9.822;2022-12-07T16:14:34;6.20;;;3.50;;
5452;SDS011;2749;53.576;9.822;2022-12-07T16:17:00;5.83;;;4.73;;
5452;SDS011;2749;53.576;9.822;2022-12-07T16:19:26;5.03;;;4.50;;
5452;SDS011;2749;53.576;9.822;2022-12-07T16:21:52;7.87;;;5.03;;
5452;SDS011;2749;53.576;9.822;2022-12-07T16:24:18;12.70;;;7.07;;
5452;SDS011;2749;53.576;9.822;2022-12-07T16:26:44;17.57;;;7.07;;
5452;SDS011;2749;53.576;9.822;2022-12-07T16:29:11;10.00;;;5.90;;
5452;SDS011;2749;53.576;9.822;2022-12-07T16:31:37;7.43;;;6.00;;
5452;SDS011;2749;53.576;9.822;2022-12-07T16:34:03;10.17;;;5.87;;
5452;SDS011;2749;53.576;9.822;2022-12-07T16:36:29;5.67;;;3.83;;
5452;SDS011;2749;53.576;9.822;2022-12-07T16:38:55;9.50;;;4.67;;
5452;SDS011;2749;53.576;9.822;2022-12-07T16:41:23;10.60;;;4.40;;
5452;SDS011;2749;53.576;9.822;2022-12-07T16:43:49;7.80;;;4.70;;
5452;SDS011;2749;53.576;9.822;2022-12-07T16:46:15;6.13;;;4.33;;
5452;SDS011;2749;53.576;9.822;2022-12-07T16:48:41;5.17;;;3.00;;